Time;durP1;ratioP1;P1;durP2;ratioP2;P2;SDS_P1;SDS_P2;PMS_P1;PMS_P2;Temp;Humidity;BMP_temperature;BMP_pressure;BME280_temperature;BME280_humidity;BME280_pressure;Samples;Min_cycle;Max_cycle;Signal;HPM_P1;HPM_P2
2022/07/13 00:01:37;;;;;;;11.02;7.50;;;21.90;99.90;;;;;;5126414;27;20043;-85
2022/07/13 00:04:02;;;;;;;9.98;7.72;;;21.90;99.90;;;;;;5075400;28;20043;-85
2022/07/13 00:06:28;;;;;;;9.95;7.38;;;21.90;99.90;;;;;;5092302;28;20036;-85
2022/07/13 00:08:54;;;;;;;10.80;7.47;;;21.80;99.90;;;;;;5108908;28;20063;-85
2022/07/13 00:11:19;;;;;;;9.40;7.40;;;21.80;99.90;;;;;;5109536;28;20032;-85
2022/07/13 00:13:45;;;;;;;10.52;7.68;;;21.80;99.90;;;;;;5075033;28;20036;-85
2022/07/13 00:16:10;;;;;;;10.43;7.50;;;21.80;99.90;;;;;;5109426;28;20040;-85
2022/07/13 00:18:36;;;;;;;9.85;7.70;;;21.80;99.90;;;;;;5108948;28;20497;-85
2022/07/13 00:21:01;;;;;;;12.35;7.05;;;21.70;99.90;;;;;;5108189;28;20040;-85
2022/07/13 00:23:27;;;;;;;10.05;7.40;;;21.70;99.90;;;;;;5092902;28;20044;-85
2022/07/13 00:25:52;;;;;;;11.45;7.63;;;21.70;99.90;;;;;;5108826;28;20540;-85
2022/07/13 00:28:18;;;;;;;10.40;7.80;;;21.60;99.90;;;;;;5108898;28;20443;-85
2022/07/13 00:30:44;;;;;;;10.60;8.05;;;21.60;99.90;;;;;;5074550;28;20452;-85
2022/07/13 00:33:09;;;;;;;12.38;8.10;;;21.60;99.90;;;;;;5108576;28;20032;-85
2022/07/13 00:35:35;;;;;;;9.18;7.40;;;21.50;99.90;;;;;;5108639;28;20040;-85
2022/07/13 00:38:01;;;;;;;12.60;8.43;;;21.50;99.90;;;;;;5091643;28;20040;-85
2022/07/13 00:40:26;;;;;;;11.38;8.55;;;21.50;99.90;;;;;;5108579;28;20039;-85
2022/07/13 00:42:52;;;;;;;12.38;8.77;;;21.50;99.90;;;;;;5092834;28;20043;-85
2022/07/13 00:45:18;;;;;;;11.30;8.93;;;21.50;99.90;;;;;;5108768;28;20069;-86
2022/07/13 00:47:47;;;;;;;11.48;8.90;;;21.50;99.90;;;;;;5108790;28;20109;-85
2022/07/13 00:50:12;;;;;;;11.60;8.85;;;21.50;99.90;;;;;;5091088;28;20501;-85
2022/07/13 00:52:38;;;;;;;10.25;8.82;;;21.50;99.90;;;;;;5108142;28;20123;-85
2022/07/13 00:55:06;;;;;;;10.70;8.50;;;21.40;99.90;;;;;;5108294;28;20059;-85
2022/07/13 00:57:37;;;;;;;10.80;8.30;;;21.40;99.90;;;;;;5091348;28;20032;-85
2022/07/13 01:00:14;;;;;;;9.88;7.88;;;21.40;99.90;;;;;;5108086;28;20044;-85
2022/07/13 01:02:42;;;;;;;10.38;8.35;;;21.40;99.90;;;;;;5108683;28;20036;-85
2022/07/13 01:05:10;;;;;;;10.70;8.52;;;21.40;99.90;;;;;;5107947;28;20036;-85
2022/07/13 01:07:36;;;;;;;11.40;8.63;;;21.30;99.90;;;;;;5108021;28;20386;-85
2022/07/13 01:10:06;;;;;;;10.32;7.97;;;21.30;99.90;;;;;;5107696;28;20040;-85
2022/07/13 01:12:36;;;;;;;10.98;8.48;;;21.30;99.90;;;;;;5107863;28;20032;-85
2022/07/13 01:15:03;;;;;;;10.57;8.38;;;21.30;99.90;;;;;;5107884;28;20164;-85
2022/07/13 01:17:30;;;;;;;11.95;8.50;;;21.30;99.90;;;;;;5108204;28;20161;-85
2022/07/13 01:19:57;;;;;;;10.95;8.40;;;21.30;99.90;;;;;;5090525;28;20390;-84
2022/07/13 01:22:31;;;;;;;10.63;8.13;;;21.30;99.90;;;;;;5107916;28;20040;-85
2022/07/13 01:24:58;;;;;;;10.55;8.50;;;21.30;99.90;;;;;;5073684;28;20055;-85
2022/07/13 01:27:23;;;;;;;12.07;8.50;;;21.30;99.90;;;;;;5090535;28;20417;-85
2022/07/13 01:29:49;;;;;;;10.68;8.30;;;21.30;99.90;;;;;;5107419;28;20039;-85
2022/07/13 01:32:15;;;;;;;10.10;8.15;;;21.30;99.90;;;;;;5073860;28;20043;-85
2022/07/13 01:34:40;;;;;;;10.73;8.63;;;21.30;99.90;;;;;;5107782;28;20403;-85
2022/07/13 01:37:06;;;;;;;10.55;8.35;;;21.30;99.90;;;;;;5073277;28;20549;-85
2022/07/13 01:39:32;;;;;;;11.18;9.23;;;21.30;99.90;;;;;;5107278;28;20028;-85
2022/07/13 01:41:57;;;;;;;10.27;8.75;;;21.30;99.90;;;;;;5107528;28;20047;-85
2022/07/13 01:44:23;;;;;;;11.25;8.82;;;21.30;99.90;;;;;;5107201;28;20452;-85
2022/07/13 01:46:49;;;;;;;10.45;8.95;;;21.30;99.90;;;;;;5107510;28;20040;-85
2022/07/13 01:49:14;;;;;;;11.18;9.40;;;21.30;99.90;;;;;;5073503;28;20050;-85
2022/07/13 01:51:40;;;;;;;14.00;8.80;;;21.30;99.90;;;;;;5090080;28;20052;-85
2022/07/13 01:54:05;;;;;;;9.95;8.38;;;21.20;99.90;;;;;;5107115;28;20044;-85
2022/07/13 01:56:34;;;;;;;10.35;7.90;;;21.20;99.90;;;;;;5107481;28;20036;-85
2022/07/13 01:59:01;;;;;;;12.85;9.07;;;21.20;99.90;;;;;;5090359;28;20043;-85
2022/07/13 02:01:26;;;;;;;11.70;9.35;;;21.10;99.90;;;;;;5107049;28;20118;-85
2022/07/13 02:03:52;;;;;;;11.88;9.60;;;21.10;99.90;;;;;;5106974;28;20127;-85
2022/07/13 02:06:19;;;;;;;11.90;9.50;;;21.10;99.90;;;;;;5106872;28;20036;-85
2022/07/13 02:08:44;;;;;;;11.02;9.52;;;21.10;99.90;;;;;;5107157;28;20038;-85
2022/07/13 02:11:19;;;;;;;11.63;9.05;;;21.00;99.90;;;;;;5091231;28;20127;-85
2022/07/13 02:13:45;;;;;;;11.55;9.40;;;21.10;99.90;;;;;;5106748;28;20486;-85
2022/07/13 02:16:15;;;;;;;11.15;9.95;;;21.00;99.90;;;;;;5090160;28;20071;-85
2022/07/13 02:18:41;;;;;;;11.25;10.05;;;21.00;99.90;;;;;;5106794;28;20051;-85
2022/07/13 02:21:07;;;;;;;12.23;9.80;;;21.00;99.90;;;;;;5090002;28;20085;-85
2022/07/13 02:23:32;;;;;;;13.43;9.20;;;20.90;99.90;;;;;;5106809;28;20431;-85
2022/07/13 02:25:58;;;;;;;12.23;10.57;;;20.90;99.90;;;;;;5107057;28;20069;-85
2022/07/13 02:28:23;;;;;;;13.35;10.02;;;20.80;99.90;;;;;;5089682;28;20040;-85
2022/07/13 02:30:49;;;;;;;11.77;10.57;;;20.80;99.90;;;;;;5089505;28;20193;-85
2022/07/13 02:33:15;;;;;;;12.20;10.95;;;20.80;99.90;;;;;;5089621;28;20040;-85
2022/07/13 02:35:40;;;;;;;13.85;10.95;;;20.70;99.90;;;;;;5073084;28;20036;-85
2022/07/13 02:38:06;;;;;;;12.70;10.20;;;20.80;99.90;;;;;;5091099;28;20050;-85
2022/07/13 02:40:32;;;;;;;11.43;10.20;;;20.80;99.90;;;;;;5089553;28;20036;-85
2022/07/13 02:42:57;;;;;;;12.95;11.00;;;20.90;99.90;;;;;;5091119;28;20039;-84
2022/07/13 02:45:23;;;;;;;13.27;10.75;;;20.90;99.90;;;;;;5093461;28;20063;-84
2022/07/13 02:47:49;;;;;;;13.18;11.73;;;20.90;99.90;;;;;;5093827;28;20512;-85
2022/07/13 02:50:14;;;;;;;12.07;10.70;;;21.00;99.90;;;;;;5093655;28;20043;-85
2022/07/13 02:52:40;;;;;;;12.73;11.13;;;20.90;99.90;;;;;;5110824;28;20499;-85
2022/07/13 02:55:06;;;;;;;12.95;11.00;;;21.00;99.90;;;;;;5093916;28;20036;-85
2022/07/13 02:57:32;;;;;;;12.68;11.38;;;21.00;99.90;;;;;;5093658;28;20497;-85
2022/07/13 02:59:58;;;;;;;12.30;11.00;;;20.90;99.90;;;;;;5093163;28;20082;-85
2022/07/13 03:02:24;;;;;;;13.57;10.70;;;20.90;99.90;;;;;;5093339;28;20409;-85
2022/07/13 03:04:49;;;;;;;12.05;10.48;;;20.90;99.90;;;;;;5110456;28;20040;-85
2022/07/13 03:07:15;;;;;;;12.95;10.60;;;20.90;99.90;;;;;;5093216;28;20036;-85
2022/07/13 03:09:41;;;;;;;12.93;10.32;;;20.90;99.90;;;;;;5127330;27;20048;-85
2022/07/13 03:12:06;;;;;;;11.77;10.48;;;20.90;99.90;;;;;;5110599;28;20036;-85
2022/07/13 03:14:32;;;;;;;11.50;10.10;;;20.90;99.90;;;;;;5110093;28;20047;-85
2022/07/13 03:16:58;;;;;;;11.65;10.43;;;20.90;99.90;;;;;;5093251;28;20126;-85
2022/07/13 03:19:23;;;;;;;12.23;10.23;;;20.90;99.90;;;;;;5110074;28;20036;-85
2022/07/13 03:21:49;;;;;;;11.45;9.68;;;20.90;99.90;;;;;;5076718;28;20066;-85
2022/07/13 03:24:14;;;;;;;11.10;9.45;;;20.90;99.90;;;;;;5110248;28;20497;-85
2022/07/13 03:26:40;;;;;;;10.80;8.93;;;20.90;99.90;;;;;;5110039;28;20032;-85
2022/07/13 03:29:06;;;;;;;10.50;8.75;;;20.90;99.90;;;;;;5092742;28;20378;-85
2022/07/13 03:31:31;;;;;;;10.30;9.05;;;20.90;99.90;;;;;;5110096;28;20044;-85
2022/07/13 03:33:57;;;;;;;11.25;8.68;;;20.90;99.90;;;;;;5092982;28;20028;-85
2022/07/13 03:36:22;;;;;;;10.32;8.43;;;20.90;99.90;;;;;;5092662;28;20490;-85
2022/07/13 03:38:48;;;;;;;10.15;8.43;;;20.90;99.90;;;;;;5110061;28;20040;-85
2022/07/13 03:41:13;;;;;;;10.00;8.02;;;20.90;99.90;;;;;;5075596;28;20582;-85
2022/07/13 03:43:39;;;;;;;12.50;8.45;;;21.00;99.90;;;;;;5092493;28;20036;-85
2022/07/13 03:46:05;;;;;;;10.32;8.52;;;21.00;99.90;;;;;;5109847;28;20083;-85
2022/07/13 03:48:30;;;;;;;11.13;9.05;;;21.00;99.90;;;;;;5075848;28;20063;-85
2022/07/13 03:50:56;;;;;;;12.20;10.13;;;21.00;99.90;;;;;;5109239;28;20040;-85
2022/07/13 03:53:21;;;;;;;11.30;10.10;;;21.00;99.90;;;;;;5075450;28;20047;-85
2022/07/13 03:55:47;;;;;;;10.85;9.63;;;21.00;99.90;;;;;;5108686;28;20094;-85
2022/07/13 03:58:12;;;;;;;11.95;9.45;;;21.00;99.90;;;;;;5109666;28;20032;-85
2022/07/13 04:00:38;;;;;;;12.63;10.30;;;21.00;99.90;;;;;;5109043;28;20043;-85
2022/07/13 04:03:04;;;;;;;10.93;9.55;;;21.00;99.90;;;;;;5092080;28;20127;-85
2022/07/13 04:05:30;;;;;;;13.55;8.75;;;21.00;99.90;;;;;;5109678;28;20409;-85
2022/07/13 04:07:56;;;;;;;11.38;9.52;;;21.00;99.90;;;;;;5075320;28;20048;-85
2022/07/13 04:10:21;;;;;;;10.57;8.70;;;21.00;99.90;;;;;;5109156;28;20083;-85
2022/07/13 04:12:49;;;;;;;12.40;8.82;;;21.00;99.90;;;;;;5075434;28;20500;-85
2022/07/13 04:15:15;;;;;;;9.65;7.82;;;21.00;99.90;;;;;;5093207;28;20454;-85
2022/07/13 04:17:42;;;;;;;10.43;8.35;;;21.00;99.90;;;;;;5075049;28;20043;-85
2022/07/13 04:20:09;;;;;;;11.50;8.50;;;21.00;99.90;;;;;;5108978;28;20044;-85
2022/07/13 04:22:35;;;;;;;11.90;8.00;;;21.10;99.90;;;;;;5109181;28;20086;-85
2022/07/13 04:25:02;;;;;;;9.88;7.88;;;21.00;99.90;;;;;;5108935;28;20152;-85
2022/07/13 04:27:27;;;;;;;10.55;8.50;;;21.10;99.90;;;;;;5091689;28;20515;-85
2022/07/13 04:29:53;;;;;;;11.88;7.93;;;21.00;99.90;;;;;;5108572;28;20513;-85
2022/07/13 04:32:19;;;;;;;11.57;8.30;;;21.10;99.90;;;;;;5091818;28;20040;-85
2022/07/13 04:34:44;;;;;;;9.70;8.02;;;21.10;99.90;;;;;;5108769;28;20078;-85
2022/07/13 04:37:10;;;;;;;10.13;7.72;;;21.10;99.90;;;;;;5108527;28;20040;-85
2022/07/13 04:39:38;;;;;;;10.70;7.47;;;21.10;99.90;;;;;;5091455;28;20397;-85
2022/07/13 04:42:04;;;;;;;11.82;7.60;;;21.10;99.90;;;;;;5092419;28;20079;-83
2022/07/13 04:44:29;;;;;;;11.00;8.40;;;21.10;99.90;;;;;;5078411;28;20397;-85
2022/07/13 04:46:55;;;;;;;11.15;8.45;;;21.10;99.90;;;;;;5075708;28;20085;-84
2022/07/13 04:49:23;;;;;;;11.18;8.27;;;21.10;99.90;;;;;;5112143;28;20594;-85
2022/07/13 04:51:50;;;;;;;11.70;7.85;;;21.10;99.90;;;;;;5075369;28;20047;-85
2022/07/13 04:54:17;;;;;;;9.88;7.55;;;21.10;99.90;;;;;;5108910;28;20040;-84
2022/07/13 04:56:42;;;;;;;9.02;7.35;;;21.10;99.90;;;;;;5075263;28;20039;-85
2022/07/13 04:59:08;;;;;;;9.55;7.55;;;21.10;99.90;;;;;;5074669;28;20109;-85
2022/07/13 05:01:33;;;;;;;9.65;6.75;;;21.10;99.90;;;;;;5074773;28;20067;-85
2022/07/13 05:03:59;;;;;;;9.50;7.25;;;21.20;99.90;;;;;;5108491;28;20052;-84
2022/07/13 05:06:25;;;;;;;9.18;7.38;;;21.20;99.90;;;;;;5108032;28;20493;-85
2022/07/13 05:08:51;;;;;;;9.13;6.53;;;21.20;99.90;;;;;;5108235;28;20085;-85
2022/07/13 05:11:16;;;;;;;8.73;6.13;;;21.20;99.90;;;;;;5107611;28;20089;-85
2022/07/13 05:13:42;;;;;;;8.93;6.00;;;21.20;99.90;;;;;;5107800;28;20119;-85
2022/07/13 05:16:07;;;;;;;8.10;4.97;;;21.20;99.90;;;;;;5074028;28;20032;-85
2022/07/13 05:18:33;;;;;;;8.68;5.20;;;21.20;99.90;;;;;;5090849;28;20065;-85
2022/07/13 05:20:59;;;;;;;8.50;4.80;;;21.30;99.90;;;;;;5091758;28;20120;-85
2022/07/13 05:23:24;;;;;;;7.43;4.13;;;21.20;99.90;;;;;;5107627;28;20046;-85
2022/07/13 05:25:50;;;;;;;8.15;5.25;;;21.30;99.90;;;;;;5107692;28;20036;-85
2022/07/13 05:28:15;;;;;;;8.23;5.28;;;21.30;99.90;;;;;;5107653;28;20127;-85
2022/07/13 05:30:41;;;;;;;8.45;4.80;;;21.30;99.90;;;;;;5107413;28;20151;-84
2022/07/13 05:33:06;;;;;;;8.40;4.93;;;21.30;99.90;;;;;;5090410;28;20082;-85
2022/07/13 05:35:32;;;;;;;8.73;5.20;;;21.30;99.90;;;;;;5107810;28;20453;-85
2022/07/13 05:37:58;;;;;;;9.02;5.35;;;21.30;99.90;;;;;;5107552;28;20378;-85
2022/07/13 05:40:23;;;;;;;11.15;5.50;;;21.30;99.90;;;;;;5107522;28;20527;-85
2022/07/13 05:42:49;;;;;;;8.90;5.43;;;21.40;99.90;;;;;;5107461;28;20127;-85
2022/07/13 05:45:14;;;;;;;8.13;5.45;;;21.40;99.90;;;;;;5090267;28;20036;-84
2022/07/13 05:47:46;;;;;;;8.32;5.40;;;21.40;99.90;;;;;;5073420;28;20127;-85
2022/07/13 05:50:13;;;;;;;8.55;5.70;;;21.40;99.90;;;;;;5107186;28;20047;-85
2022/07/13 05:52:39;;;;;;;10.27;5.80;;;21.50;99.90;;;;;;5090425;28;20032;-85
2022/07/13 05:55:05;;;;;;;9.90;5.75;;;21.50;99.90;;;;;;5107223;28;20089;-85
2022/07/13 05:57:31;;;;;;;9.90;5.95;;;21.50;99.90;;;;;;5090657;28;20040;-86
2022/07/13 05:59:57;;;;;;;9.20;6.35;;;21.60;99.90;;;;;;5073211;28;20046;-86
2022/07/13 06:02:22;;;;;;;10.50;6.00;;;21.60;99.90;;;;;;5107133;28;20079;-86
2022/07/13 06:04:48;;;;;;;9.20;6.15;;;21.60;99.90;;;;;;5107115;28;20036;-85
2022/07/13 06:07:14;;;;;;;10.02;6.35;;;21.70;99.90;;;;;;5107149;28;20122;-86
2022/07/13 06:09:39;;;;;;;10.70;6.65;;;21.70;99.90;;;;;;5106958;28;20060;-86
2022/07/13 06:12:05;;;;;;;9.80;6.30;;;21.70;99.90;;;;;;5091434;28;20040;-85
2022/07/13 06:14:31;;;;;;;9.27;6.05;;;21.80;99.90;;;;;;5106971;28;20043;-86
2022/07/13 06:16:56;;;;;;;12.52;6.78;;;21.80;99.90;;;;;;5106812;28;20126;-86
2022/07/13 06:19:22;;;;;;;13.30;7.07;;;21.90;99.90;;;;;;5067241;28;20036;-86
2022/07/13 06:21:47;;;;;;;9.93;7.05;;;21.90;99.90;;;;;;5069843;28;20039;-86
2022/07/13 06:24:13;;;;;;;12.82;7.43;;;21.90;99.90;;;;;;5069856;28;20537;-85
2022/07/13 06:26:39;;;;;;;16.92;7.25;;;22.00;99.90;;;;;;5069729;28;20041;-86
2022/07/13 06:29:05;;;;;;;10.18;7.13;;;22.00;99.90;;;;;;5069426;28;20040;-86
2022/07/13 06:31:30;;;;;;;9.48;6.90;;;22.00;99.90;;;;;;5069939;28;20036;-86
2022/07/13 06:33:56;;;;;;;13.20;6.85;;;22.10;99.90;;;;;;5071025;28;20079;-86
2022/07/13 06:36:22;;;;;;;10.88;6.50;;;22.10;99.90;;;;;;5069996;28;20152;-86
2022/07/13 06:38:49;;;;;;;10.27;6.30;;;22.20;99.90;;;;;;5069564;28;20079;-86
2022/07/13 06:41:15;;;;;;;9.38;6.03;;;22.20;99.90;;;;;;5052732;28;20044;-86
2022/07/13 06:43:41;;;;;;;10.48;5.82;;;22.30;99.90;;;;;;5069209;28;20132;-86
2022/07/13 06:46:07;;;;;;;10.45;6.13;;;22.30;99.90;;;;;;5070885;28;20076;-86
2022/07/13 06:48:34;;;;;;;10.50;5.88;;;22.30;99.90;;;;;;5053011;28;20066;-86
2022/07/13 06:51:00;;;;;;;11.43;5.93;;;22.40;99.90;;;;;;5069299;28;20036;-86
2022/07/13 06:53:25;;;;;;;10.20;5.70;;;22.40;99.90;;;;;;5069478;28;20040;-86
2022/07/13 06:55:51;;;;;;;10.35;5.90;;;22.40;99.90;;;;;;5069374;28;20081;-86
2022/07/13 06:58:17;;;;;;;8.48;4.90;;;22.40;99.90;;;;;;5052595;28;20040;-86
2022/07/13 07:00:42;;;;;;;11.05;5.05;;;22.40;99.90;;;;;;5069336;28;20037;-85
2022/07/13 07:03:08;;;;;;;9.93;4.75;;;22.50;99.90;;;;;;5069277;28;20075;-86
2022/07/13 07:05:34;;;;;;;8.57;4.93;;;22.60;99.90;;;;;;5052695;28;20127;-86
2022/07/13 07:08:02;;;;;;;9.32;5.15;;;22.70;99.90;;;;;;5069349;28;20128;-86
2022/07/13 07:10:28;;;;;;;11.25;5.68;;;22.70;99.90;;;;;;5069040;28;20098;-86
2022/07/13 07:12:53;;;;;;;15.85;5.07;;;22.80;99.90;;;;;;5052225;28;20038;-86
2022/07/13 07:15:19;;;;;;;10.10;4.97;;;22.80;99.90;;;;;;5069746;28;20055;-86
2022/07/13 07:17:49;;;;;;;10.30;5.45;;;23.00;99.90;;;;;;5073511;28;20036;-86
2022/07/13 07:20:16;;;;;;;10.88;5.05;;;23.00;99.90;;;;;;5058372;28;20042;-86
2022/07/13 07:22:42;;;;;;;10.63;5.68;;;23.10;99.90;;;;;;5077637;28;20063;-86
2022/07/13 07:25:09;;;;;;;33.67;7.45;;;23.10;99.90;;;;;;5077117;28;20105;-86
2022/07/13 07:27:35;;;;;;;10.38;5.45;;;23.20;99.90;;;;;;5075940;28;20040;-86
2022/07/13 07:30:01;;;;;;;9.88;5.68;;;23.20;99.90;;;;;;5065116;28;20047;-86
2022/07/13 07:32:27;;;;;;;8.48;5.32;;;23.20;99.90;;;;;;5079994;28;20371;-86
2022/07/13 07:34:53;;;;;;;9.43;6.03;;;23.30;99.90;;;;;;5078459;28;20505;-86
2022/07/13 07:37:20;;;;;;;10.32;6.25;;;23.30;99.90;;;;;;5072589;28;20415;-86
2022/07/13 07:39:46;;;;;;;11.48;6.50;;;23.30;99.90;;;;;;5070685;28;20557;-85
2022/07/13 07:42:12;;;;;;;10.50;6.60;;;23.40;99.90;;;;;;5070835;28;20041;-86
2022/07/13 07:44:37;;;;;;;10.57;6.68;;;23.40;99.90;;;;;;5052765;28;20514;-86
2022/07/13 07:47:03;;;;;;;10.18;6.72;;;23.50;99.90;;;;;;5087348;28;20052;-87
2022/07/13 07:49:28;;;;;;;15.23;7.57;;;23.50;99.90;;;;;;5053699;28;20072;-86
2022/07/13 07:51:54;;;;;;;10.02;6.32;;;23.50;99.90;;;;;;5070198;28;20050;-86
2022/07/13 07:54:20;;;;;;;11.38;6.65;;;23.70;99.90;;;;;;5053941;28;20044;-85
2022/07/13 07:56:45;;;;;;;11.90;7.55;;;23.70;99.90;;;;;;5072192;28;20029;-86
2022/07/13 07:59:12;;;;;;;11.45;7.03;;;23.70;99.90;;;;;;5072090;28;20033;-85
2022/07/13 08:01:38;;;;;;;10.10;7.00;;;23.70;99.90;;;;;;5072496;28;20041;-86
2022/07/13 08:04:03;;;;;;;10.77;7.20;;;23.80;99.90;;;;;;5055342;28;20514;-86
2022/07/13 08:06:29;;;;;;;10.38;7.43;;;23.80;99.90;;;;;;5072083;28;20135;-86
2022/07/13 08:08:55;;;;;;;11.50;7.28;;;23.90;99.90;;;;;;5072013;28;20059;-86
2022/07/13 08:11:20;;;;;;;12.55;7.57;;;24.00;99.90;;;;;;5072149;28;20041;-85
2022/07/13 08:13:47;;;;;;;14.68;7.72;;;24.00;99.90;;;;;;5072047;28;20489;-86
2022/07/13 08:16:14;;;;;;;12.50;7.35;;;24.00;99.90;;;;;;5072367;28;20422;-85
2022/07/13 08:18:39;;;;;;;11.90;7.07;;;24.10;99.90;;;;;;5071762;28;20043;-86
2022/07/13 08:21:05;;;;;;;11.70;7.22;;;24.20;99.90;;;;;;5071991;28;20036;-86
2022/07/13 08:26:15;;;;;;;11.60;7.75;;;24.40;99.90;;;;;;5089027;28;20044;-86
2022/07/13 08:28:41;;;;;;;10.85;7.03;;;24.40;99.90;;;;;;5071729;28;20557;-86
2022/07/13 08:31:07;;;;;;;14.52;8.02;;;24.50;99.90;;;;;;5071275;28;20052;-86
2022/07/13 08:39:01;;;;;;;13.15;6.50;;;24.70;99.90;;;;;;5088095;28;20040;-86
2022/07/13 08:41:27;;;;;;;11.20;7.30;;;24.80;99.90;;;;;;5087387;28;20370;-86
2022/07/13 08:43:52;;;;;;;10.75;7.55;;;24.90;99.90;;;;;;5054677;28;20125;-87
2022/07/13 08:46:20;;;;;;;10.02;6.90;;;24.90;99.90;;;;;;5071542;28;20045;-87
2022/07/13 08:48:49;;;;;;;10.15;6.63;;;25.00;99.90;;;;;;5071401;28;20036;-86
2022/07/13 08:51:18;;;;;;;11.02;7.15;;;25.10;99.90;;;;;;5054654;28;20040;-86
2022/07/13 08:53:44;;;;;;;54.60;9.25;;;25.20;99.90;;;;;;5087652;28;20509;-86
2022/07/13 08:56:11;;;;;;;11.60;7.40;;;25.20;99.90;;;;;;5071284;28;20131;-86
2022/07/13 08:58:37;;;;;;;12.60;6.25;;;25.30;99.90;;;;;;5071319;28;20036;-86
2022/07/13 09:01:03;;;;;;;10.15;5.90;;;25.30;99.90;;;;;;5054222;28;20124;-86
2022/07/13 09:03:35;;;;;;;11.20;6.78;;;25.40;99.90;;;;;;5054546;28;20135;-86
2022/07/13 09:06:00;;;;;;;;;;;25.50;99.90;;;;;;5060022;28;20064;-86
2022/07/13 09:08:26;;;;;;;10.70;7.10;;;25.40;99.90;;;;;;5065429;28;19966;-86
2022/07/13 09:11:01;;;;;;;10.35;6.78;;;25.40;99.90;;;;;;5074044;28;20039;-86
2022/07/13 09:13:36;;;;;;;10.93;6.35;;;25.50;99.90;;;;;;5108168;28;20036;-86
2022/07/13 09:16:21;;;;;;;12.10;7.07;;;25.50;99.90;;;;;;5108044;28;20454;-86
2022/07/13 09:18:51;;;;;;;12.10;6.40;;;25.50;99.90;;;;;;5107980;28;20036;-86
2022/07/13 09:21:18;;;;;;;10.52;6.82;;;25.60;99.90;;;;;;5107793;28;20036;-86
2022/07/13 09:23:48;;;;;;;12.00;7.57;;;25.70;99.90;;;;;;5107912;28;20054;-86
2022/07/13 09:26:14;;;;;;;11.95;7.07;;;25.70;99.90;;;;;;5107856;28;20097;-86
2022/07/13 09:28:44;;;;;;;11.45;7.70;;;25.80;99.90;;;;;;5107438;28;20044;-87
2022/07/13 09:31:13;;;;;;;11.70;7.13;;;25.90;99.90;;;;;;5090610;28;20044;-86
2022/07/13 09:33:41;;;;;;;12.77;6.35;;;25.90;99.90;;;;;;5107499;28;20043;-86
2022/07/13 09:36:17;;;;;;;12.57;6.95;;;26.00;99.90;;;;;;5107624;28;20119;-85
2022/07/13 09:38:44;;;;;;;13.25;7.03;;;26.10;99.90;;;;;;5107762;28;20464;-85
2022/07/13 09:41:19;;;;;;;12.15;7.25;;;26.10;99.90;;;;;;5101165;28;20036;-85
2022/07/13 09:46:57;;;;;;;16.77;6.93;;;26.30;99.90;;;;;;5090490;28;20052;-85
2022/07/13 09:49:39;;;;;;;10.27;6.85;;;26.50;99.90;;;;;;5107182;28;20044;-86
2022/07/13 09:52:06;;;;;;;12.23;5.65;;;26.50;99.90;;;;;;5106497;28;20048;-85
2022/07/13 09:54:34;;;;;;;15.10;7.80;;;26.50;99.90;;;;;;5107354;28;20115;-85
2022/07/13 09:57:03;;;;;;;10.13;5.82;;;26.50;99.90;;;;;;5073632;28;20405;-85
2022/07/13 09:59:29;;;;;;;13.77;5.45;;;26.60;99.90;;;;;;5106952;28;20104;-86
2022/07/13 10:01:56;;;;;;;10.07;5.50;;;26.70;99.90;;;;;;5107086;28;20040;-85
2022/07/13 10:04:22;;;;;;;10.27;5.47;;;26.80;99.90;;;;;;5073156;28;20040;-85
2022/07/13 10:06:49;;;;;;;9.88;5.40;;;27.00;99.90;;;;;;5106607;28;20032;-86
2022/07/13 10:09:19;;;;;;;10.88;4.95;;;27.00;99.90;;;;;;5107498;28;20252;-86
2022/07/13 10:11:45;;;;;;;10.65;5.55;;;27.00;99.90;;;;;;5107155;28;20036;-85
2022/07/13 10:14:12;;;;;;;112.47;14.05;;;27.00;99.90;;;;;;5090956;28;20048;-85
2022/07/13 10:16:38;;;;;;;13.93;5.63;;;27.10;99.90;;;;;;5081072;28;20051;-85
2022/07/13 10:19:05;;;;;;;9.63;4.15;;;27.20;99.90;;;;;;5105986;28;20040;-85
2022/07/13 10:22:09;;;;;;;9.50;4.38;;;27.20;99.90;;;;;;5091559;28;20233;-84
2022/07/13 10:24:35;;;;;;;8.88;4.78;;;27.30;99.90;;;;;;5090077;28;20413;-84
2022/07/13 10:27:21;;;;;;;11.25;3.90;;;27.40;99.90;;;;;;5106768;28;20528;-85
2022/07/13 10:29:51;;;;;;;7.97;4.00;;;27.50;99.90;;;;;;5072949;28;20036;-84
2022/07/13 10:32:21;;;;;;;10.57;3.42;;;27.50;98.20;;;;;;5106885;28;20044;-84
2022/07/13 10:34:51;;;;;;;9.15;3.28;;;27.50;99.40;;;;;;5106675;28;20043;-85
2022/07/13 10:37:17;;;;;;;13.82;3.58;;;27.40;95.20;;;;;;5106895;28;20048;-85
2022/07/13 10:40:10;;;;;;;9.55;3.22;;;27.20;94.30;;;;;;5103148;28;20033;-84
2022/07/13 10:42:54;;;;;;;;;;;27.30;97.20;;;;;;5073344;28;20053;-85
2022/07/13 10:45:38;;;;;;;8.85;2.75;;;27.20;91.00;;;;;;5096932;28;19923;-85
2022/07/13 10:48:32;;;;;;;6.15;2.40;;;27.40;89.00;;;;;;5069478;28;20478;-84
2022/07/13 10:50:59;;;;;;;8.40;2.50;;;27.50;84.60;;;;;;5069380;28;20525;-85
2022/07/13 10:53:37;;;;;;;7.97;2.65;;;27.60;87.90;;;;;;5074582;28;20036;-85
2022/07/13 10:56:03;;;;;;;12.88;2.85;;;27.70;92.00;;;;;;5078181;28;20033;-86
2022/07/13 10:58:32;;;;;;;10.02;3.05;;;27.80;90.10;;;;;;5082137;28;20028;-86
2022/07/13 11:01:21;;;;;;;5.50;2.40;;;27.90;81.10;;;;;;5080940;28;20039;-85
2022/07/13 11:03:48;;;;;;;6.63;2.40;;;27.80;79.10;;;;;;5063665;28;20137;-85
2022/07/13 11:06:21;;;;;;;5.97;2.60;;;27.80;79.60;;;;;;5081477;28;20116;-86
2022/07/13 11:09:06;;;;;;;5.97;2.70;;;27.80;77.90;;;;;;5083432;28;20041;-85
2022/07/13 11:11:32;;;;;;;7.63;2.70;;;27.90;81.90;;;;;;5084466;28;20115;-86
2022/07/13 11:13:58;;;;;;;8.18;3.47;;;27.80;86.90;;;;;;5081430;28;20062;-86
2022/07/13 11:16:42;;;;;;;7.82;2.85;;;27.90;93.40;;;;;;5083214;28;20120;-85
2022/07/13 11:19:08;;;;;;;10.10;3.30;;;27.90;90.20;;;;;;5089736;28;20128;-85
2022/07/13 11:22:06;;;;;;;12.68;2.60;;;27.90;89.20;;;;;;5067241;28;20119;-85
2022/07/13 11:27:28;;;;;;;11.20;2.90;;;28.20;92.10;;;;;;5090157;28;20448;-86
2022/07/13 11:30:02;;;;;;;13.18;3.40;;;28.30;92.40;;;;;;5080542;28;20047;-85
2022/07/13 11:32:28;;;;;;;10.10;2.95;;;28.30;89.80;;;;;;5056136;28;20036;-85
2022/07/13 11:34:55;;;;;;;7.53;2.70;;;28.30;92.20;;;;;;5072855;28;20481;-85
2022/07/13 11:37:25;;;;;;;9.13;2.72;;;28.30;93.90;;;;;;5072446;28;20045;-86
2022/07/13 11:39:50;;;;;;;7.43;2.70;;;28.30;88.90;;;;;;5072167;28;20048;-86
2022/07/13 11:42:21;;;;;;;7.38;2.40;;;28.10;88.50;;;;;;5072980;28;20051;-85
2022/07/13 11:44:50;;;;;;;5.95;2.30;;;28.00;85.70;;;;;;5056021;28;20063;-85
2022/07/13 11:47:16;;;;;;;6.55;2.40;;;27.90;86.40;;;;;;5073753;28;20509;-84
2022/07/13 11:49:49;;;;;;;5.70;2.40;;;27.90;84.30;;;;;;5073377;28;20186;-85
2022/07/13 11:52:26;;;;;;;6.15;2.40;;;27.90;81.90;;;;;;5073522;28;20055;-85
2022/07/13 11:55:02;;;;;;;6.80;2.60;;;28.00;83.90;;;;;;5073710;28;20564;-85
2022/07/13 11:57:30;;;;;;;7.07;2.30;;;28.10;79.40;;;;;;5073635;28;20116;-85
2022/07/13 12:00:04;;;;;;;5.53;2.08;;;28.20;81.80;;;;;;5071894;28;20064;-85
2022/07/13 12:02:30;;;;;;;6.20;2.30;;;28.20;81.20;;;;;;5072349;28;20044;-85
2022/07/13 12:04:56;;;;;;;5.22;2.05;;;28.20;81.50;;;;;;5071748;28;20051;-85
2022/07/13 12:07:24;;;;;;;10.30;2.30;;;28.30;80.00;;;;;;5055766;28;20434;-85
2022/07/13 12:09:52;;;;;;;5.50;2.17;;;28.50;77.60;;;;;;5055533;28;20129;-85
2022/07/13 12:12:20;;;;;;;7.63;1.90;;;28.60;73.20;;;;;;5055347;28;20048;-85
2022/07/13 12:14:46;;;;;;;7.28;2.58;;;28.70;77.00;;;;;;5071548;28;20401;-85
2022/07/13 12:17:12;;;;;;;9.05;2.30;;;29.00;74.60;;;;;;5071892;28;20432;-85
2022/07/13 12:19:38;;;;;;;6.72;2.13;;;29.10;72.70;;;;;;5072685;28;20505;-85
2022/07/13 12:22:06;;;;;;;4.97;1.90;;;29.20;71.90;;;;;;5072146;28;20405;-85
2022/07/13 12:24:31;;;;;;;9.40;2.05;;;29.30;68.90;;;;;;5072935;28;20553;-85
2022/07/13 12:26:57;;;;;;;8.52;2.17;;;29.20;65.10;;;;;;5071828;28;20119;-85
2022/07/13 12:29:30;;;;;;;5.75;2.08;;;29.20;65.90;;;;;;5075342;28;20024;-85
2022/07/13 12:31:57;;;;;;;7.15;1.90;;;29.30;67.00;;;;;;5081008;28;20033;-85
2022/07/13 12:34:23;;;;;;;6.65;2.25;;;29.30;66.10;;;;;;5071875;28;20052;-86
2022/07/13 12:36:49;;;;;;;7.20;1.80;;;29.40;64.20;;;;;;5038241;28;20037;-86
2022/07/13 12:39:15;;;;;;;8.13;2.30;;;29.50;64.60;;;;;;5088212;28;20078;-85
2022/07/13 12:41:42;;;;;;;5.60;2.10;;;29.60;63.00;;;;;;5071427;28;20072;-86
2022/07/13 12:44:09;;;;;;;7.97;2.50;;;29.60;61.50;;;;;;5054922;28;20044;-86
2022/07/13 12:46:54;;;;;;;6.40;2.10;;;29.60;62.20;;;;;;5071119;28;20048;-86
2022/07/13 12:49:47;;;;;;;8.07;2.00;;;29.80;66.40;;;;;;5071284;28;20040;-86
2022/07/13 12:52:13;;;;;;;10.27;2.20;;;29.90;61.70;;;;;;5071788;28;20144;-86
2022/07/13 12:54:48;;;;;;;7.13;2.40;;;29.90;62.30;;;;;;5057767;28;20148;-82
2022/07/13 12:57:16;;;;;;;7.38;1.80;;;30.00;66.40;;;;;;5063879;28;20097;-85